»·PEaware :: N246AB KPSP-KSBP

N246AB :: KPSP-KSBP

FLIGHT INFORMATION

Flight Status: Arrived
Operator: Privately registered:
United States
More flights under this callsign
Pilot: Tommaso M. (17204)
Aircraft: Unknown
(SF50)
More flights by this aircraft type
Origin: KPSP Palm Springs Intl
United States
Destination: KSBP San Luis Co Regl
United States
More flights between these airports :: More routes between these airports
Route: +
File this flight plan on PilotEdge
Remarks:
Altitude:
(Current/Filed)
0ft
Speed:
(Current/Filed)
210kts
Departed: 15-May-18 06:34 PM
Arrived: 15-May-18 07:36 PM
Distance/Time
Traveled:
221nm/1:02
Distance/Time
To Go:
Arrived

Flight Plot

Page will automatically refresh every two minutes.


Map Options




Map Legend


Flown Route
Filed Route
Departure Airport
Arrival Airport
Navaid (VOR, NDB)
Fix

Horizontal Profiles

Position Reports

Time Latitude Longitude Heading Altitude Ground
Speed
15-May-18 18:25 33.823370 -116.498355 55 398ft 0kts
15-May-18 18:26 33.823370 -116.498355 55 398ft 0kts
15-May-18 18:27 33.823370 -116.498355 55 398ft 0kts
15-May-18 18:28 33.823378 -116.498341 55 398ft 0kts
15-May-18 18:29 33.822113 -116.496867 143 395ft 13kts
15-May-18 18:30 33.819290 -116.496985 232 392ft 6kts
15-May-18 18:31 33.819173 -116.497168 232 392ft 0kts
15-May-18 18:32 33.819173 -116.497168 232 392ft 0kts
15-May-18 18:33 33.819004 -116.497706 268 393ft 11kts
15-May-18 18:34 33.834408 -116.510616 328 1345ft 113kts
15-May-18 18:35 33.865921 -116.531082 332 3449ft 145kts
15-May-18 18:36 33.884972 -116.569311 263 5491ft 157kts
15-May-18 18:37 33.879876 -116.629036 271 8051ft 192kts
15-May-18 18:38 33.894568 -116.683237 293 10545ft 197kts
15-May-18 18:39 33.913009 -116.734003 293 12761ft 200kts
15-May-18 18:40 33.934545 -116.793008 293 14635ft 220kts
15-May-18 18:41 33.959762 -116.862223 293 16651ft 230kts
15-May-18 18:42 33.986650 -116.936194 293 17514ft 261kts
15-May-18 18:43 34.016832 -117.019423 293 17504ft 277kts
15-May-18 18:44 34.047738 -117.104877 293 17501ft 280kts
15-May-18 18:45 34.078841 -117.191100 293 17502ft 281kts
15-May-18 18:46 34.108820 -117.274424 293 17500ft 281kts
15-May-18 18:47 34.139834 -117.360849 293 17500ft 281kts
15-May-18 18:48 34.170938 -117.447760 293 17345ft 287kts
15-May-18 18:49 34.201794 -117.534213 293 17346ft 273kts
15-May-18 18:50 34.231445 -117.617448 293 17352ft 267kts
15-May-18 18:51 34.260055 -117.698090 293 17354ft 265kts
15-May-18 18:52 34.288837 -117.779363 293 17353ft 264kts
15-May-18 18:53 34.317650 -117.860927 293 17353ft 264kts
15-May-18 18:54 34.346478 -117.942746 292 17352ft 264kts
15-May-18 18:55 34.375110 -118.024212 293 17354ft 263kts
15-May-18 18:56 34.403725 -118.105844 293 17354ft 264kts
15-May-18 18:57 34.432353 -118.187724 293 17353ft 264kts
15-May-18 18:58 34.460871 -118.269502 293 17354ft 264kts
15-May-18 18:59 34.489384 -118.351475 293 17353ft 264kts
15-May-18 19:00 34.517726 -118.433172 293 17353ft 264kts
15-May-18 19:01 34.546069 -118.515084 293 17351ft 264kts
15-May-18 19:02 34.574427 -118.597254 293 17354ft 264kts
15-May-18 19:03 34.601727 -118.676563 292 17354ft 264kts
15-May-18 19:04 34.630039 -118.759025 292 17353ft 264kts
15-May-18 19:05 34.657651 -118.839659 292 16744ft 254kts
15-May-18 19:06 34.684390 -118.917941 292 16138ft 249kts
15-May-18 19:07 34.710883 -118.995698 292 15407ft 251kts
15-May-18 19:08 34.737390 -119.073692 292 14412ft 250kts
15-May-18 19:09 34.763840 -119.151722 292 13418ft 249kts
15-May-18 19:10 34.790174 -119.229602 292 12412ft 244kts
15-May-18 19:11 34.815618 -119.305034 292 11402ft 238kts
15-May-18 19:12 34.840522 -119.379046 292 10402ft 235kts
15-May-18 19:13 34.864467 -119.450375 292 9851ft 221kts
15-May-18 19:14 34.887329 -119.518629 292 9346ft 216kts
15-May-18 19:15 34.909901 -119.586179 292 8847ft 215kts
15-May-18 19:16 34.932293 -119.653328 291 8348ft 214kts
15-May-18 19:17 34.954597 -119.720356 291 7852ft 213kts
15-May-18 19:18 34.976955 -119.787700 291 7352ft 213kts
15-May-18 19:19 34.997141 -119.848627 291 6890ft 214kts
15-May-18 19:20 35.019450 -119.916109 291 6390ft 214kts
15-May-18 19:21 35.041963 -119.984361 291 5565ft 218kts
15-May-18 19:22 35.064690 -120.053417 291 4671ft 219kts
15-May-18 19:23 35.086136 -120.118716 291 4205ft 189kts
15-May-18 19:24 35.103736 -120.172416 291 4268ft 165kts
15-May-18 19:25 35.117499 -120.225671 273 4161ft 172kts
15-May-18 19:26 35.118292 -120.288165 270 3502ft 189kts
15-May-18 19:27 35.118778 -120.352583 270 2813ft 191kts
15-May-18 19:28 35.119208 -120.414159 270 2673ft 170kts
15-May-18 19:29 35.133763 -120.464290 306 2676ft 157kts
15-May-18 19:30 35.159172 -120.506273 307 2676ft 148kts
15-May-18 19:31 35.183670 -120.546587 306 2003ft 145kts
15-May-18 19:32 35.199175 -120.573759 305 1346ft 86kts
15-May-18 19:33 35.211944 -120.596341 305 740ft 80kts
15-May-18 19:34 35.222726 -120.615446 304 569ft 80kts
15-May-18 19:35 35.233385 -120.634078 305 220ft 70kts
15-May-18 19:36 35.236463 -120.639470 306 193ft 12kts
15-May-18 19:37 35.237494 -120.639909 11 192ft 5kts
15-May-18 19:38 35.237820 -120.638196 46 198ft 9kts

Navigation Log

Ident Type
1. KPSP Airport
2. KSBP Airport